• Join FlightAware (Why Join?)
  • Login
  • US Flag 
11:46AM EDT


 

Airport Tracker/Info


-or-


 

Live Flight TrackerFlight Track Log ✈ N745CC ✈ 19-Jul-2013 ✈ KBED - KTTN

Flight Track Log - Related Links

Times and Time Zones

All times are in EDT time to prevent confusion due to time zone crossing. See the N745CC flight status page for this flight to view local times or setup timezone preferences in your user account.

Time Position Orientation Groundspeed Altitude Reporting Facility
EDT Latitude Longitude Course Direction KTS MPH feet Rate Location/Type
03:36PM 42.4667 -71.3167 246° West 158 182 1,000  Level KA90
03:37PM 42.4500 -71.3667 246° West 179 206 2,400 1,740 Climbing KA90
03:39PM 42.3922 -71.4928 238° Southwest 234 269 5,700 1,620 Climbing Boston Center
03:40PM 42.3511 -71.5439 223° Southwest 247 284 7,000 1,620 Climbing Boston Center
03:41PM 42.2869 -71.6150 219° Southwest 257 296 9,000 1,800 Climbing Boston Center
03:42PM 42.2414 -71.6717 223° Southwest 257 296 10,600 1,680 Climbing Boston Center
03:43PM 42.1794 -71.7286 214° Southwest 257 296 12,400 1,680 Climbing Boston Center
03:44PM 42.1256 -71.7739 212° Southwest 257 296 14,000 1,680 Climbing Boston Center
03:45PM 42.0592 -71.8278 211° Southwest 257 296 15,800 1,500 Climbing Boston Center
03:46PM 42.0031 -71.8758 212° Southwest 257 296 17,400 1,680 Climbing Boston Center
03:47PM 41.9283 -71.9378 212° Southwest 263 303 19,500 1,260 Climbing Boston Center
03:48PM 41.8639 -71.9914 212° Southwest 263 303 20,000 240 Climbing Boston Center
03:49PM 41.7892 -72.0503 210° Southwest 291 335 20,000  Level Boston Center
03:50PM 41.7100 -72.1203 213° Southwest 323 372 20,000  Level Boston Center
03:51PM 41.6289 -72.1844 211° Southwest 341 392 20,000  Level Boston Center
03:52PM 41.5458 -72.2486 210° Southwest 341 392 20,000  Level Boston Center
03:53PM 41.4625 -72.3128 210° Southwest 346 398 20,000  Level Boston Center
03:54PM 41.4000 -72.3653 212° Southwest 346 398 20,000  Level Boston Center
03:55PM 41.3000 -72.4456 211° Southwest 346 398 20,000  Level Boston Center
03:56PM 41.1978 -72.5283 211° Southwest 352 405 20,000  Level Boston Center
03:57PM 41.1164 -72.5972 213° Southwest 352 405 20,000 -300 Level Boston Center
03:58PM 41.0247 -72.6683 210° Southwest 352 405 19,400 -1,020 Descending Boston Center
03:59PM 40.9453 -72.7342 212° Southwest 345 397 18,000 -1,500 Descending Boston Center
04:00PM 40.8661 -72.7969 211° Southwest 339 390 16,500 -1,500 Descending Boston Center
04:01PM 40.7867 -72.8567 210° Southwest 339 390 15,100 -1,320 Descending Boston Center
04:02PM 40.7072 -72.9192 211° Southwest 339 390 13,900 -600 Descending Boston Center
04:03PM 40.6361 -72.9733 210° Southwest 325 374 13,900  Level Boston Center
04:04PM 40.6053 -72.9989 212° Southwest 321 369 13,900 60 Level New York Center
04:05PM 40.5375 -73.0542 212° Southwest 277 319 14,000  Climbing New York Center
04:06PM 40.4722 -73.1011 209° Southwest 277 319 14,000  Level New York Center
04:07PM 40.4150 -73.1481 212° Southwest 277 319 14,000  Level New York Center
04:08PM 40.3408 -73.2056 211° Southwest 277 319 14,000 -360 Level New York Center
04:09PM 40.2814 -73.2522 211° Southwest 277 319 13,300 -1,140 Descending New York Center
04:10PM 40.2075 -73.3067 209° Southwest 277 319 11,800 -1,380 Descending New York Center
04:11PM 40.1481 -73.3533 211° Southwest 277 319 10,600 -1,260 Descending New York Center
04:12PM 40.0739 -73.4103 210° Southwest 277 319 9,400 -1,080 Descending New York Center
04:13PM 40.0186 -73.4542 211° Southwest 277 319 8,500 -1,020 Descending New York Center
04:14PM 39.9525 -73.5194 217° Southwest 277 319 7,400 -1,080 Descending New York Center
04:15PM 39.9586 -73.6089 275° West 235 270 6,400 -1,020 Descending New York Center
04:16PM 39.9753 -73.6989 284° West 235 270 5,400 -1,020 Descending New York Center
04:17PM 39.9917 -73.7864 284° West 245 282 4,400 -720 Descending New York Center
04:18PM 40.0083 -73.8739 284° West 250 288 4,000 -240 Descending New York Center
04:19PM 40.0331 -73.9589 291° West 250 288 4,000  Level New York Center
04:20PM 40.0581 -74.0333 294° West 250 288 4,000  Level New York Center
04:21PM 40.0828 -74.1158 291° West 255 293 4,000  Level New York Center
04:22PM 40.1136 -74.2097 293° West 255 293 4,000  Level New York Center
04:23PM 40.1403 -74.2953 292° West 255 293 4,000  Level New York Center
04:24PM 40.1628 -74.3725 291° West 255 293 4,000  Level New York Center
04:25PM 40.1894 -74.4525 294° West 255 293 4,000  Level New York Center
04:26PM 40.2078 -74.5325 287° West 233 268 4,000 -480 Level New York Center
04:27PM 40.2225 -74.5931 288° West 205 236 3,100 -960 Descending New York Center
04:28PM 40.2369 -74.6592 286° West 193 222 2,100 -720 Descending New York Center
04:29PM 40.2536 -74.7225 289° West 188 216 1,800 -480 Descending New York Center
04:30PM 40.2881 -74.7572 322° Northwest 175 201 1,200 -660 Descending New York Center
04:31PM 40.2889 -74.7953 272° West 123 142 500 -420 Descending New York Center
04:32PM 40.2897 -74.8308 272° West 123 142 400 1,740 Descending New York Center
04:33PM 40.2925 -74.8664 276° West 123 142 4,000 1,800 Climbing New York Center
04:34PM 40.2978 -74.8992 282° West 123 142 4,000  Level New York Center
04:35PM 40.3006 -74.9347 276° West 123 142 4,000  Level New York Center
04:37PM 40.2629 -74.8225 78° East  Level FlightAware Approximate
04:44PM 40.2667 -74.8000 78° East  Level FlightAware Approximate
04:45PM 40.2767 -74.8135 78° East  Level Estimated
04:46PM 40.2767 -74.8135 78° East  Level Estimated
04:47PM 40.2767 -74.8135 78° East  Level Estimated
04:48PM 40.2767 -74.8135 78° East  Level Estimated
04:49PM 40.2767 -74.8135 78° East  Level Estimated